Aérodrome :
LOGIN :

S'inscrire | Disclaimer

   EN    FR    IT 

 










Légende :    VFR   VFR Marginal   IFR   IFR Intensif   IFR Très Intensif
Visi : 
Plafond : 
>= 8 km
>= 3000ft
5 à 8 km
1000 à 3000 ft
1500m à 5 km
500 à 1000 ft
800 à 1500m
200 à 500 ft
< 800m
< 200 ft
Symboles :   Orages  Brouillard  Fortes neiges  Fortes précipitations  Vent > 20 kt
SIGMETs :   Divers  Orages  Givrage  Turbulence  Onde Orograph.  Cendres Volcan.






- Altitude de l'aérodrome : 3 ft
- Code IATA : DHR


EHKD - Den Helder De Kooy

DERNIER METAR :
  • 260025Z AUTO 28002KT 0500 FG OVC270 08/08 Q1035 RED

METARs EXPIRÉS :
  • 260016Z AUTO 28003KT 0800 FG OVC260 09/09 Q1035 AMB
  • 252355Z AUTO 28003KT 0650 FG SCT270 09/09 Q1035 RED
  • 252339Z AUTO 29002KT 0600 FG SCT350 09/08 Q1035 RED
  • 252325Z AUTO 29002KT 0450 FG FEW370 10/09 Q1035 RED
  • 252255Z AUTO 29002KT 0650 FG NCD 10/10 Q1035 RED
  • 252247Z AUTO 29003KT 0600 FG NCD 10/10 Q1035 RED
  • 252236Z AUTO 29002KT 0400 FG NCD 10/09 Q1035 RED
  • 252227Z AUTO 29002KT 0400 FG NCD 10/10 Q1035 RED
  • 252207Z AUTO 28002KT 9999 NCD 11/10 Q1035 BLU
  • 252155Z AUTO 26002KT 8000 BR BKN370 11/10 Q1035 BLU VRB03KT 8000 NSC

TAF TAF EHKD
Valide du 25 à 21h jusqu'au 26 à 09h UTC


252052Z 2521/2609 VRB03KT CAVOK
BECMG 2523/2602 15003KT 4000 BR MIFG
BECMG 2605/2507 CAVOK



MET'MAP, la Météo Aéronautique d'un coup d'oeil ! - Copyright ORBIFLY Décembre 2007 - Disclaimer

ORBIFLY MET'MAP TEAM :

Programmation & Développement : Alexandra Zaïnal
Sur une idée originale de : Baudouin d'Aumeries
Assistance à la programmation : Marc-Olivier Méhu
Soutien technique & logistique : Manuel Goepfert

Contact : metmap@orbifly.com




SOURCES & CREDITS :

   NOAA